sensor_id;sensor_type;location;lat;lon;timestamp;P1;durP1;ratioP1;P2;durP2;ratioP2
2390;SDS011;22957;50.824;4.360;2024-03-23T00:53:44;8.27;;;2.53;;
2390;SDS011;22957;50.824;4.360;2024-03-23T00:56:09;11.13;;;3.03;;
2390;SDS011;22957;50.824;4.360;2024-03-23T00:58:35;5.20;;;1.50;;
2390;SDS011;22957;50.824;4.360;2024-03-23T01:01:00;9.60;;;1.93;;
2390;SDS011;22957;50.824;4.360;2024-03-23T01:03:28;8.17;;;2.43;;
2390;SDS011;22957;50.824;4.360;2024-03-23T01:05:54;10.83;;;2.67;;
2390;SDS011;22957;50.824;4.360;2024-03-23T01:08:23;9.30;;;2.50;;
2390;SDS011;22957;50.824;4.360;2024-03-23T01:10:56;9.17;;;1.73;;
2390;SDS011;22957;50.824;4.360;2024-03-23T01:13:22;15.80;;;2.63;;
2390;SDS011;22957;50.824;4.360;2024-03-23T01:15:51;9.00;;;2.13;;
2390;SDS011;22957;50.824;4.360;2024-03-23T01:18:18;4.87;;;2.00;;
2390;SDS011;22957;50.824;4.360;2024-03-23T01:20:45;7.73;;;2.70;;
2390;SDS011;22957;50.824;4.360;2024-03-23T01:23:11;8.57;;;1.90;;
2390;SDS011;22957;50.824;4.360;2024-03-23T01:25:37;8.60;;;2.37;;
2390;SDS011;22957;50.824;4.360;2024-03-23T01:28:03;6.47;;;1.63;;
2390;SDS011;22957;50.824;4.360;2024-03-23T01:30:29;6.97;;;2.93;;
2390;SDS011;22957;50.824;4.360;2024-03-23T01:32:55;8.83;;;2.47;;
2390;SDS011;22957;50.824;4.360;2024-03-23T01:35:21;6.90;;;2.83;;
2390;SDS011;22957;50.824;4.360;2024-03-23T01:37:47;14.60;;;3.50;;
2390;SDS011;22957;50.824;4.360;2024-03-23T01:40:12;8.77;;;2.80;;
2390;SDS011;22957;50.824;4.360;2024-03-23T01:42:40;9.87;;;3.57;;
2390;SDS011;22957;50.824;4.360;2024-03-23T01:45:07;14.87;;;2.77;;
2390;SDS011;22957;50.824;4.360;2024-03-23T01:47:33;13.07;;;4.20;;
2390;SDS011;22957;50.824;4.360;2024-03-23T01:49:59;9.27;;;4.03;;
2390;SDS011;22957;50.824;4.360;2024-03-23T01:52:25;15.33;;;3.73;;
2390;SDS011;22957;50.824;4.360;2024-03-23T01:54:52;10.30;;;2.67;;
2390;SDS011;22957;50.824;4.360;2024-03-23T01:57:18;14.90;;;4.70;;
2390;SDS011;22957;50.824;4.360;2024-03-23T01:59:45;16.40;;;4.00;;
2390;SDS011;22957;50.824;4.360;2024-03-23T02:02:12;15.90;;;4.10;;
2390;SDS011;22957;50.824;4.360;2024-03-23T02:04:37;16.03;;;3.90;;
2390;SDS011;22957;50.824;4.360;2024-03-23T02:07:03;6.30;;;3.10;;
2390;SDS011;22957;50.824;4.360;2024-03-23T02:09:31;17.80;;;4.47;;
2390;SDS011;22957;50.824;4.360;2024-03-23T02:11:57;7.40;;;3.60;;
2390;SDS011;22957;50.824;4.360;2024-03-23T02:14:23;7.87;;;3.17;;
2390;SDS011;22957;50.824;4.360;2024-03-23T02:16:48;12.20;;;4.50;;
2390;SDS011;22957;50.824;4.360;2024-03-23T02:19:14;16.03;;;5.07;;
2390;SDS011;22957;50.824;4.360;2024-03-23T02:21:39;13.13;;;4.50;;
2390;SDS011;22957;50.824;4.360;2024-03-23T02:24:05;13.73;;;5.43;;
2390;SDS011;22957;50.824;4.360;2024-03-23T02:26:31;16.47;;;4.47;;
2390;SDS011;22957;50.824;4.360;2024-03-23T02:28:57;10.13;;;3.97;;
2390;SDS011;22957;50.824;4.360;2024-03-23T02:31:22;12.77;;;4.97;;
2390;SDS011;22957;50.824;4.360;2024-03-23T02:33:48;21.57;;;6.03;;
2390;SDS011;22957;50.824;4.360;2024-03-23T02:36:13;12.10;;;5.20;;
2390;SDS011;22957;50.824;4.360;2024-03-23T02:38:39;19.10;;;5.97;;
2390;SDS011;22957;50.824;4.360;2024-03-23T02:41:04;18.93;;;5.63;;
2390;SDS011;22957;50.824;4.360;2024-03-23T02:43:30;14.30;;;5.00;;
2390;SDS011;22957;50.824;4.360;2024-03-23T02:45:56;18.97;;;5.37;;
2390;SDS011;22957;50.824;4.360;2024-03-23T02:48:22;15.90;;;5.20;;
2390;SDS011;22957;50.824;4.360;2024-03-23T02:50:48;16.93;;;5.77;;
2390;SDS011;22957;50.824;4.360;2024-03-23T02:53:14;14.60;;;5.47;;
2390;SDS011;22957;50.824;4.360;2024-03-23T02:55:40;17.83;;;5.30;;
2390;SDS011;22957;50.824;4.360;2024-03-23T02:58:05;14.23;;;5.13;;
2390;SDS011;22957;50.824;4.360;2024-03-23T03:00:31;18.87;;;6.27;;
2390;SDS011;22957;50.824;4.360;2024-03-23T03:02:57;21.37;;;5.93;;
2390;SDS011;22957;50.824;4.360;2024-03-23T03:05:22;24.27;;;6.47;;
2390;SDS011;22957;50.824;4.360;2024-03-23T03:07:48;14.53;;;6.20;;
2390;SDS011;22957;50.824;4.360;2024-03-23T03:10:13;16.23;;;5.67;;
2390;SDS011;22957;50.824;4.360;2024-03-23T03:12:39;16.77;;;6.07;;
2390;SDS011;22957;50.824;4.360;2024-03-23T03:15:05;11.20;;;5.43;;
2390;SDS011;22957;50.824;4.360;2024-03-23T03:17:31;23.43;;;6.57;;
2390;SDS011;22957;50.824;4.360;2024-03-23T03:19:56;17.33;;;6.23;;
2390;SDS011;22957;50.824;4.360;2024-03-23T03:22:22;16.67;;;5.60;;
2390;SDS011;22957;50.824;4.360;2024-03-23T03:24:48;24.27;;;7.47;;
2390;SDS011;22957;50.824;4.360;2024-03-23T03:27:14;18.83;;;6.70;;
2390;SDS011;22957;50.824;4.360;2024-03-23T03:29:40;20.10;;;6.47;;
2390;SDS011;22957;50.824;4.360;2024-03-23T03:32:05;16.43;;;6.90;;
2390;SDS011;22957;50.824;4.360;2024-03-23T03:34:31;13.50;;;7.23;;
2390;SDS011;22957;50.824;4.360;2024-03-23T03:36:57;22.50;;;8.37;;
2390;SDS011;22957;50.824;4.360;2024-03-23T03:39:24;19.50;;;6.80;;
2390;SDS011;22957;50.824;4.360;2024-03-23T03:41:50;21.00;;;6.60;;
2390;SDS011;22957;50.824;4.360;2024-03-23T03:44:16;16.90;;;7.07;;
2390;SDS011;22957;50.824;4.360;2024-03-23T03:46:42;18.60;;;7.73;;
2390;SDS011;22957;50.824;4.360;2024-03-23T03:49:08;15.30;;;7.33;;
2390;SDS011;22957;50.824;4.360;2024-03-23T03:51:33;17.67;;;7.80;;
2390;SDS011;22957;50.824;4.360;2024-03-23T03:53:59;12.20;;;5.93;;
2390;SDS011;22957;50.824;4.360;2024-03-23T03:56:25;20.87;;;8.13;;
2390;SDS011;22957;50.824;4.360;2024-03-23T03:58:50;18.00;;;7.87;;
2390;SDS011;22957;50.824;4.360;2024-03-23T04:01:16;21.30;;;8.00;;
2390;SDS011;22957;50.824;4.360;2024-03-23T04:03:43;15.47;;;6.07;;
2390;SDS011;22957;50.824;4.360;2024-03-23T04:06:11;20.63;;;6.73;;
2390;SDS011;22957;50.824;4.360;2024-03-23T04:08:40;16.13;;;7.73;;
2390;SDS011;22957;50.824;4.360;2024-03-23T04:11:05;19.63;;;7.67;;
2390;SDS011;22957;50.824;4.360;2024-03-23T04:13:31;21.90;;;5.87;;
2390;SDS011;22957;50.824;4.360;2024-03-23T04:15:56;18.50;;;6.47;;
2390;SDS011;22957;50.824;4.360;2024-03-23T04:18:22;14.90;;;6.43;;
2390;SDS011;22957;50.824;4.360;2024-03-23T04:20:49;16.53;;;5.67;;
2390;SDS011;22957;50.824;4.360;2024-03-23T04:23:14;13.00;;;5.57;;
2390;SDS011;22957;50.824;4.360;2024-03-23T04:25:40;19.80;;;5.93;;
2390;SDS011;22957;50.824;4.360;2024-03-23T04:28:05;11.07;;;5.00;;
2390;SDS011;22957;50.824;4.360;2024-03-23T04:30:31;18.67;;;5.80;;
2390;SDS011;22957;50.824;4.360;2024-03-23T04:32:57;15.60;;;4.73;;
2390;SDS011;22957;50.824;4.360;2024-03-23T04:35:23;16.07;;;6.40;;
2390;SDS011;22957;50.824;4.360;2024-03-23T04:37:50;14.33;;;4.77;;
2390;SDS011;22957;50.824;4.360;2024-03-23T04:40:20;15.90;;;5.50;;
2390;SDS011;22957;50.824;4.360;2024-03-23T04:42:46;14.50;;;4.57;;
2390;SDS011;22957;50.824;4.360;2024-03-23T04:45:11;16.80;;;5.90;;
2390;SDS011;22957;50.824;4.360;2024-03-23T04:47:37;12.43;;;4.07;;
2390;SDS011;22957;50.824;4.360;2024-03-23T04:50:03;13.37;;;4.80;;
2390;SDS011;22957;50.824;4.360;2024-03-23T04:52:30;9.93;;;4.70;;
2390;SDS011;22957;50.824;4.360;2024-03-23T04:54:55;14.23;;;5.37;;
2390;SDS011;22957;50.824;4.360;2024-03-23T04:57:21;13.70;;;5.00;;
2390;SDS011;22957;50.824;4.360;2024-03-23T04:59:47;10.90;;;4.17;;
2390;SDS011;22957;50.824;4.360;2024-03-23T05:02:13;16.40;;;4.17;;
2390;SDS011;22957;50.824;4.360;2024-03-23T05:04:39;13.53;;;5.17;;
2390;SDS011;22957;50.824;4.360;2024-03-23T05:07:08;18.33;;;4.07;;
2390;SDS011;22957;50.824;4.360;2024-03-23T05:09:33;13.17;;;4.10;;
2390;SDS011;22957;50.824;4.360;2024-03-23T05:11:59;7.50;;;3.80;;
2390;SDS011;22957;50.824;4.360;2024-03-23T05:14:25;13.10;;;3.60;;
2390;SDS011;22957;50.824;4.360;2024-03-23T05:16:51;15.47;;;4.83;;
2390;SDS011;22957;50.824;4.360;2024-03-23T05:19:17;17.63;;;4.30;;
2390;SDS011;22957;50.824;4.360;2024-03-23T05:21:43;10.43;;;3.70;;
2390;SDS011;22957;50.824;4.360;2024-03-23T05:24:08;12.60;;;3.70;;
2390;SDS011;22957;50.824;4.360;2024-03-23T05:26:34;12.77;;;4.43;;
2390;SDS011;22957;50.824;4.360;2024-03-23T05:29:00;13.20;;;4.60;;
2390;SDS011;22957;50.824;4.360;2024-03-23T05:31:27;11.37;;;4.00;;
2390;SDS011;22957;50.824;4.360;2024-03-23T05:33:54;14.40;;;4.13;;
2390;SDS011;22957;50.824;4.360;2024-03-23T05:36:20;11.07;;;4.00;;
2390;SDS011;22957;50.824;4.360;2024-03-23T05:38:46;14.63;;;3.80;;
2390;SDS011;22957;50.824;4.360;2024-03-23T05:41:11;10.90;;;3.40;;
2390;SDS011;22957;50.824;4.360;2024-03-23T05:43:37;14.33;;;4.00;;
2390;SDS011;22957;50.824;4.360;2024-03-23T05:46:03;11.33;;;4.00;;
2390;SDS011;22957;50.824;4.360;2024-03-23T05:48:30;13.10;;;4.50;;
2390;SDS011;22957;50.824;4.360;2024-03-23T05:50:56;12.83;;;2.93;;
2390;SDS011;22957;50.824;4.360;2024-03-23T05:53:23;12.07;;;2.73;;
2390;SDS011;22957;50.824;4.360;2024-03-23T05:55:49;14.90;;;3.40;;
2390;SDS011;22957;50.824;4.360;2024-03-23T05:58:25;10.10;;;2.13;;
2390;SDS011;22957;50.824;4.360;2024-03-23T06:00:56;10.33;;;2.17;;
2390;SDS011;22957;50.824;4.360;2024-03-23T06:03:23;12.23;;;2.40;;
2390;SDS011;22957;50.824;4.360;2024-03-23T06:05:48;11.33;;;2.37;;
2390;SDS011;22957;50.824;4.360;2024-03-23T06:08:14;13.40;;;2.10;;
2390;SDS011;22957;50.824;4.360;2024-03-23T06:10:40;6.73;;;2.13;;
2390;SDS011;22957;50.824;4.360;2024-03-23T06:13:05;5.90;;;1.60;;
2390;SDS011;22957;50.824;4.360;2024-03-23T06:15:31;17.67;;;3.07;;
2390;SDS011;22957;50.824;4.360;2024-03-23T06:17:57;14.60;;;2.00;;
2390;SDS011;22957;50.824;4.360;2024-03-23T06:20:23;12.87;;;1.57;;
2390;SDS011;22957;50.824;4.360;2024-03-23T06:22:49;7.03;;;1.50;;
2390;SDS011;22957;50.824;4.360;2024-03-23T06:25:14;7.53;;;1.77;;
2390;SDS011;22957;50.824;4.360;2024-03-23T06:27:40;11.73;;;1.87;;
2390;SDS011;22957;50.824;4.360;2024-03-23T06:30:06;5.97;;;1.30;;
2390;SDS011;22957;50.824;4.360;2024-03-23T06:32:33;12.07;;;2.07;;
2390;SDS011;22957;50.824;4.360;2024-03-23T06:34:59;14.50;;;1.70;;
2390;SDS011;22957;50.824;4.360;2024-03-23T06:37:24;12.53;;;2.13;;
2390;SDS011;22957;50.824;4.360;2024-03-23T06:39:50;12.27;;;2.10;;
2390;SDS011;22957;50.824;4.360;2024-03-23T06:42:16;13.50;;;2.90;;
2390;SDS011;22957;50.824;4.360;2024-03-23T06:44:41;13.37;;;1.93;;
2390;SDS011;22957;50.824;4.360;2024-03-23T06:47:08;16.67;;;1.90;;
2390;SDS011;22957;50.824;4.360;2024-03-23T06:49:34;9.17;;;1.63;;
2390;SDS011;22957;50.824;4.360;2024-03-23T06:52:00;14.97;;;2.37;;
2390;SDS011;22957;50.824;4.360;2024-03-23T06:54:25;7.93;;;1.63;;
2390;SDS011;22957;50.824;4.360;2024-03-23T06:56:51;11.37;;;1.87;;
2390;SDS011;22957;50.824;4.360;2024-03-23T06:59:17;10.20;;;2.03;;
2390;SDS011;22957;50.824;4.360;2024-03-23T07:01:42;6.90;;;1.70;;
2390;SDS011;22957;50.824;4.360;2024-03-23T07:04:08;8.93;;;1.60;;
2390;SDS011;22957;50.824;4.360;2024-03-23T07:06:34;12.07;;;1.73;;
2390;SDS011;22957;50.824;4.360;2024-03-23T07:08:59;18.70;;;2.27;;
2390;SDS011;22957;50.824;4.360;2024-03-23T07:11:25;12.63;;;1.90;;
2390;SDS011;22957;50.824;4.360;2024-03-23T07:13:52;8.40;;;1.70;;
2390;SDS011;22957;50.824;4.360;2024-03-23T07:16:21;7.63;;;1.90;;
2390;SDS011;22957;50.824;4.360;2024-03-23T07:18:47;8.90;;;1.53;;
2390;SDS011;22957;50.824;4.360;2024-03-23T07:21:14;13.30;;;2.20;;
2390;SDS011;22957;50.824;4.360;2024-03-23T07:23:43;6.37;;;1.60;;
2390;SDS011;22957;50.824;4.360;2024-03-23T07:26:10;8.00;;;1.70;;
2390;SDS011;22957;50.824;4.360;2024-03-23T07:28:36;5.20;;;1.70;;
2390;SDS011;22957;50.824;4.360;2024-03-23T07:31:02;7.70;;;1.50;;
2390;SDS011;22957;50.824;4.360;2024-03-23T07:36:09;10.60;;;1.77;;
2390;SDS011;22957;50.824;4.360;2024-03-23T07:38:34;9.77;;;1.90;;
2390;SDS011;22957;50.824;4.360;2024-03-23T07:41:04;13.13;;;1.70;;
2390;SDS011;22957;50.824;4.360;2024-03-23T07:43:30;12.10;;;2.20;;
2390;SDS011;22957;50.824;4.360;2024-03-23T07:45:56;5.97;;;1.63;;
2390;SDS011;22957;50.824;4.360;2024-03-23T07:48:22;7.50;;;1.80;;
2390;SDS011;22957;50.824;4.360;2024-03-23T07:50:55;6.57;;;1.53;;
2390;SDS011;22957;50.824;4.360;2024-03-23T07:53:21;12.17;;;2.10;;
2390;SDS011;22957;50.824;4.360;2024-03-23T07:55:52;15.07;;;2.10;;
2390;SDS011;22957;50.824;4.360;2024-03-23T07:58:22;11.20;;;2.30;;
2390;SDS011;22957;50.824;4.360;2024-03-23T08:00:48;12.07;;;2.20;;
2390;SDS011;22957;50.824;4.360;2024-03-23T08:03:14;13.10;;;1.67;;
2390;SDS011;22957;50.824;4.360;2024-03-23T08:05:40;12.47;;;2.30;;
2390;SDS011;22957;50.824;4.360;2024-03-23T08:08:05;14.10;;;2.50;;
2390;SDS011;22957;50.824;4.360;2024-03-23T08:10:31;7.60;;;1.80;;
2390;SDS011;22957;50.824;4.360;2024-03-23T08:12:57;9.47;;;2.30;;
2390;SDS011;22957;50.824;4.360;2024-03-23T08:15:22;11.90;;;2.27;;
2390;SDS011;22957;50.824;4.360;2024-03-23T08:17:48;8.87;;;2.30;;
2390;SDS011;22957;50.824;4.360;2024-03-23T08:20:14;10.47;;;1.90;;
2390;SDS011;22957;50.824;4.360;2024-03-23T08:22:40;11.73;;;2.43;;
2390;SDS011;22957;50.824;4.360;2024-03-23T08:25:05;14.40;;;4.40;;
2390;SDS011;22957;50.824;4.360;2024-03-23T08:27:31;15.00;;;3.50;;
2390;SDS011;22957;50.824;4.360;2024-03-23T08:29:58;7.80;;;1.80;;
2390;SDS011;22957;50.824;4.360;2024-03-23T08:32:23;13.70;;;2.23;;
2390;SDS011;22957;50.824;4.360;2024-03-23T08:34:49;8.23;;;2.13;;
2390;SDS011;22957;50.824;4.360;2024-03-23T08:37:14;9.93;;;2.33;;
2390;SDS011;22957;50.824;4.360;2024-03-23T08:39:42;8.87;;;2.07;;
2390;SDS011;22957;50.824;4.360;2024-03-23T08:42:08;9.03;;;1.40;;
2390;SDS011;22957;50.824;4.360;2024-03-23T08:44:34;12.20;;;1.73;;
2390;SDS011;22957;50.824;4.360;2024-03-23T08:47:00;8.30;;;1.60;;
2390;SDS011;22957;50.824;4.360;2024-03-23T08:49:26;11.07;;;2.10;;
2390;SDS011;22957;50.824;4.360;2024-03-23T08:51:52;7.30;;;1.60;;
2390;SDS011;22957;50.824;4.360;2024-03-23T08:54:17;10.33;;;1.47;;
2390;SDS011;22957;50.824;4.360;2024-03-23T08:56:45;4.23;;;1.87;;
2390;SDS011;22957;50.824;4.360;2024-03-23T08:59:11;9.10;;;2.20;;
2390;SDS011;22957;50.824;4.360;2024-03-23T09:01:36;14.83;;;2.50;;
2390;SDS011;22957;50.824;4.360;2024-03-23T09:04:03;11.87;;;1.67;;
2390;SDS011;22957;50.824;4.360;2024-03-23T09:06:29;10.67;;;1.53;;
2390;SDS011;22957;50.824;4.360;2024-03-23T09:08:55;11.53;;;1.80;;
2390;SDS011;22957;50.824;4.360;2024-03-23T09:11:21;13.63;;;1.80;;
2390;SDS011;22957;50.824;4.360;2024-03-23T09:13:46;9.83;;;2.03;;
2390;SDS011;22957;50.824;4.360;2024-03-23T09:16:12;11.40;;;1.77;;
2390;SDS011;22957;50.824;4.360;2024-03-23T09:18:38;11.07;;;2.03;;
2390;SDS011;22957;50.824;4.360;2024-03-23T09:21:04;6.93;;;1.27;;
2390;SDS011;22957;50.824;4.360;2024-03-23T09:23:36;6.70;;;1.47;;
2390;SDS011;22957;50.824;4.360;2024-03-23T09:26:05;5.60;;;1.60;;
2390;SDS011;22957;50.824;4.360;2024-03-23T09:28:32;5.90;;;1.43;;
2390;SDS011;22957;50.824;4.360;2024-03-23T09:31:08;6.23;;;1.57;;
2390;SDS011;22957;50.824;4.360;2024-03-23T09:33:34;12.50;;;2.07;;
2390;SDS011;22957;50.824;4.360;2024-03-23T09:36:04;12.30;;;1.70;;
2390;SDS011;22957;50.824;4.360;2024-03-23T09:38:30;7.10;;;1.53;;
2390;SDS011;22957;50.824;4.360;2024-03-23T09:40:56;6.40;;;2.00;;
2390;SDS011;22957;50.824;4.360;2024-03-23T09:43:22;11.60;;;2.50;;
2390;SDS011;22957;50.824;4.360;2024-03-23T09:45:48;7.73;;;2.20;;
2390;SDS011;22957;50.824;4.360;2024-03-23T09:48:14;6.70;;;1.67;;
2390;SDS011;22957;50.824;4.360;2024-03-23T09:50:41;12.23;;;2.43;;
2390;SDS011;22957;50.824;4.360;2024-03-23T09:53:08;6.23;;;1.83;;
2390;SDS011;22957;50.824;4.360;2024-03-23T09:55:35;9.57;;;2.90;;
2390;SDS011;22957;50.824;4.360;2024-03-23T09:58:01;5.30;;;1.90;;
2390;SDS011;22957;50.824;4.360;2024-03-23T10:00:27;5.37;;;1.43;;
2390;SDS011;22957;50.824;4.360;2024-03-23T10:02:56;6.83;;;1.70;;
2390;SDS011;22957;50.824;4.360;2024-03-23T10:05:26;9.50;;;2.37;;
2390;SDS011;22957;50.824;4.360;2024-03-23T10:07:52;6.57;;;1.97;;
2390;SDS011;22957;50.824;4.360;2024-03-23T10:10:18;6.87;;;1.57;;
2390;SDS011;22957;50.824;4.360;2024-03-23T10:12:47;6.90;;;2.30;;
2390;SDS011;22957;50.824;4.360;2024-03-23T10:17:49;5.53;;;1.40;;
2390;SDS011;22957;50.824;4.360;2024-03-23T10:20:24;4.27;;;1.50;;
2390;SDS011;22957;50.824;4.360;2024-03-23T10:22:50;4.43;;;1.17;;
2390;SDS011;22957;50.824;4.360;2024-03-23T10:25:24;10.50;;;1.90;;
2390;SDS011;22957;50.824;4.360;2024-03-23T10:27:59;8.20;;;1.40;;
2390;SDS011;22957;50.824;4.360;2024-03-23T10:30:28;5.63;;;1.87;;
2390;SDS011;22957;50.824;4.360;2024-03-23T10:33:09;5.47;;;2.03;;
2390;SDS011;22957;50.824;4.360;2024-03-23T10:35:36;6.07;;;1.50;;
2390;SDS011;22957;50.824;4.360;2024-03-23T10:38:05;3.90;;;1.50;;
2390;SDS011;22957;50.824;4.360;2024-03-23T10:40:33;6.97;;;1.60;;
2390;SDS011;22957;50.824;4.360;2024-03-23T10:43:05;5.40;;;1.50;;
2390;SDS011;22957;50.824;4.360;2024-03-23T10:45:33;4.43;;;1.53;;
2390;SDS011;22957;50.824;4.360;2024-03-23T10:47:59;7.73;;;1.30;;
2390;SDS011;22957;50.824;4.360;2024-03-23T10:50:24;4.40;;;1.30;;
2390;SDS011;22957;50.824;4.360;2024-03-23T10:52:50;9.30;;;1.57;;
2390;SDS011;22957;50.824;4.360;2024-03-23T10:55:18;4.10;;;1.50;;
2390;SDS011;22957;50.824;4.360;2024-03-23T10:57:49;7.83;;;1.93;;
2390;SDS011;22957;50.824;4.360;2024-03-23T11:00:16;6.70;;;1.20;;
2390;SDS011;22957;50.824;4.360;2024-03-23T11:02:42;6.10;;;1.40;;
2390;SDS011;22957;50.824;4.360;2024-03-23T11:07:55;4.67;;;1.33;;
2390;SDS011;22957;50.824;4.360;2024-03-23T11:10:25;9.53;;;1.53;;
2390;SDS011;22957;50.824;4.360;2024-03-23T11:12:53;6.63;;;1.50;;
2390;SDS011;22957;50.824;4.360;2024-03-23T11:15:18;4.80;;;1.20;;
2390;SDS011;22957;50.824;4.360;2024-03-23T11:18:03;7.50;;;1.40;;
2390;SDS011;22957;50.824;4.360;2024-03-23T11:20:34;5.17;;;1.10;;
2390;SDS011;22957;50.824;4.360;2024-03-23T11:23:00;4.73;;;1.23;;
2390;SDS011;22957;50.824;4.360;2024-03-23T11:25:26;10.17;;;1.40;;
2390;SDS011;22957;50.824;4.360;2024-03-23T11:27:53;6.00;;;1.30;;
2390;SDS011;22957;50.824;4.360;2024-03-23T11:30:22;3.87;;;1.33;;
2390;SDS011;22957;50.824;4.360;2024-03-23T11:32:53;4.90;;;1.70;;
2390;SDS011;22957;50.824;4.360;2024-03-23T11:35:30;5.67;;;1.33;;
2390;SDS011;22957;50.824;4.360;2024-03-23T11:40:31;4.83;;;1.33;;
2390;SDS011;22957;50.824;4.360;2024-03-23T11:42:59;5.53;;;1.33;;
2390;SDS011;22957;50.824;4.360;2024-03-23T11:45:26;5.93;;;1.10;;
2390;SDS011;22957;50.824;4.360;2024-03-23T11:50:48;3.33;;;1.07;;
2390;SDS011;22957;50.824;4.360;2024-03-23T11:53:16;3.17;;;1.10;;
2390;SDS011;22957;50.824;4.360;2024-03-23T11:58:17;9.17;;;1.30;;
2390;SDS011;22957;50.824;4.360;2024-03-23T12:01:02;5.90;;;1.27;;
2390;SDS011;22957;50.824;4.360;2024-03-23T12:03:29;6.03;;;1.23;;
2390;SDS011;22957;50.824;4.360;2024-03-23T12:05:57;6.50;;;1.10;;
2390;SDS011;22957;50.824;4.360;2024-03-23T12:11:16;8.30;;;1.10;;
2390;SDS011;22957;50.824;4.360;2024-03-23T12:13:43;4.13;;;1.00;;
2390;SDS011;22957;50.824;4.360;2024-03-23T12:16:17;6.53;;;1.20;;
2390;SDS011;22957;50.824;4.360;2024-03-23T12:18:45;4.97;;;1.13;;
2390;SDS011;22957;50.824;4.360;2024-03-23T12:21:16;6.03;;;1.20;;
2390;SDS011;22957;50.824;4.360;2024-03-23T12:23:42;6.40;;;1.00;;
2390;SDS011;22957;50.824;4.360;2024-03-23T12:26:09;5.33;;;1.10;;
2390;SDS011;22957;50.824;4.360;2024-03-23T12:28:37;9.93;;;1.10;;
2390;SDS011;22957;50.824;4.360;2024-03-23T12:31:02;8.03;;;1.00;;
2390;SDS011;22957;50.824;4.360;2024-03-23T12:33:28;7.70;;;1.60;;
2390;SDS011;22957;50.824;4.360;2024-03-23T12:35:54;5.73;;;1.20;;
2390;SDS011;22957;50.824;4.360;2024-03-23T12:38:19;6.80;;;1.10;;
2390;SDS011;22957;50.824;4.360;2024-03-23T12:40:48;7.63;;;1.50;;
2390;SDS011;22957;50.824;4.360;2024-03-23T12:43:17;6.03;;;1.43;;
2390;SDS011;22957;50.824;4.360;2024-03-23T12:45:46;4.93;;;1.27;;
2390;SDS011;22957;50.824;4.360;2024-03-23T12:48:15;4.40;;;1.30;;
2390;SDS011;22957;50.824;4.360;2024-03-23T12:50:41;12.27;;;1.47;;
2390;SDS011;22957;50.824;4.360;2024-03-23T12:53:07;5.33;;;1.30;;
2390;SDS011;22957;50.824;4.360;2024-03-23T12:55:35;6.00;;;1.07;;
2390;SDS011;22957;50.824;4.360;2024-03-23T12:58:01;8.13;;;1.47;;
2390;SDS011;22957;50.824;4.360;2024-03-23T13:00:28;2.10;;;0.70;;
2390;SDS011;22957;50.824;4.360;2024-03-23T13:02:53;2.90;;;0.90;;
2390;SDS011;22957;50.824;4.360;2024-03-23T13:05:19;3.57;;;0.80;;
2390;SDS011;22957;50.824;4.360;2024-03-23T13:07:44;3.53;;;1.10;;
2390;SDS011;22957;50.824;4.360;2024-03-23T13:10:10;2.17;;;0.90;;
2390;SDS011;22957;50.824;4.360;2024-03-23T13:12:36;5.80;;;1.00;;
2390;SDS011;22957;50.824;4.360;2024-03-23T13:15:01;3.90;;;0.90;;
2390;SDS011;22957;50.824;4.360;2024-03-23T13:17:27;3.53;;;0.93;;
2390;SDS011;22957;50.824;4.360;2024-03-23T13:19:53;5.17;;;1.00;;
2390;SDS011;22957;50.824;4.360;2024-03-23T13:22:20;4.47;;;1.00;;
2390;SDS011;22957;50.824;4.360;2024-03-23T13:24:46;6.63;;;1.00;;
2390;SDS011;22957;50.824;4.360;2024-03-23T13:27:11;3.03;;;0.70;;
2390;SDS011;22957;50.824;4.360;2024-03-23T13:29:37;4.43;;;1.10;;
2390;SDS011;22957;50.824;4.360;2024-03-23T13:32:03;4.70;;;0.70;;
2390;SDS011;22957;50.824;4.360;2024-03-23T13:34:28;2.43;;;0.70;;
2390;SDS011;22957;50.824;4.360;2024-03-23T13:36:54;3.47;;;0.83;;
2390;SDS011;22957;50.824;4.360;2024-03-23T13:39:23;3.00;;;0.90;;
2390;SDS011;22957;50.824;4.360;2024-03-23T13:41:48;3.57;;;0.73;;
2390;SDS011;22957;50.824;4.360;2024-03-23T13:44:14;3.17;;;1.03;;
2390;SDS011;22957;50.824;4.360;2024-03-23T13:46:41;2.63;;;1.00;;
2390;SDS011;22957;50.824;4.360;2024-03-23T13:49:14;2.97;;;0.90;;
2390;SDS011;22957;50.824;4.360;2024-03-23T13:51:54;5.00;;;0.83;;
2390;SDS011;22957;50.824;4.360;2024-03-23T13:54:20;5.60;;;1.20;;
2390;SDS011;22957;50.824;4.360;2024-03-23T13:56:52;2.60;;;0.93;;
2390;SDS011;22957;50.824;4.360;2024-03-23T13:59:22;3.53;;;0.80;;
2390;SDS011;22957;50.824;4.360;2024-03-23T14:01:51;1.33;;;0.80;;
2390;SDS011;22957;50.824;4.360;2024-03-23T14:04:17;6.80;;;1.10;;
2390;SDS011;22957;50.824;4.360;2024-03-23T14:06:44;4.33;;;1.13;;
2390;SDS011;22957;50.824;4.360;2024-03-23T14:09:13;2.30;;;0.83;;
2390;SDS011;22957;50.824;4.360;2024-03-23T14:11:39;4.00;;;1.03;;
2390;SDS011;22957;50.824;4.360;2024-03-23T14:14:08;6.03;;;0.80;;
2390;SDS011;22957;50.824;4.360;2024-03-23T14:16:34;5.30;;;0.90;;
2390;SDS011;22957;50.824;4.360;2024-03-23T14:19:00;2.80;;;0.80;;
2390;SDS011;22957;50.824;4.360;2024-03-23T14:21:25;6.10;;;0.90;;
2390;SDS011;22957;50.824;4.360;2024-03-23T14:23:51;4.23;;;0.90;;
2390;SDS011;22957;50.824;4.360;2024-03-23T14:26:17;4.67;;;1.00;;
2390;SDS011;22957;50.824;4.360;2024-03-23T14:28:42;4.10;;;0.83;;
2390;SDS011;22957;50.824;4.360;2024-03-23T14:31:08;4.60;;;1.00;;
2390;SDS011;22957;50.824;4.360;2024-03-23T14:33:35;7.10;;;0.93;;
2390;SDS011;22957;50.824;4.360;2024-03-23T14:36:11;5.30;;;0.90;;
2390;SDS011;22957;50.824;4.360;2024-03-23T14:38:41;6.10;;;1.10;;
2390;SDS011;22957;50.824;4.360;2024-03-23T14:41:07;2.87;;;1.10;;
2390;SDS011;22957;50.824;4.360;2024-03-23T14:43:33;4.30;;;0.93;;
2390;SDS011;22957;50.824;4.360;2024-03-23T14:46:12;4.03;;;0.90;;
2390;SDS011;22957;50.824;4.360;2024-03-23T14:48:39;5.00;;;1.10;;
2390;SDS011;22957;50.824;4.360;2024-03-23T14:51:06;5.13;;;0.90;;
2390;SDS011;22957;50.824;4.360;2024-03-23T14:53:35;12.63;;;1.87;;
2390;SDS011;22957;50.824;4.360;2024-03-23T14:56:02;3.63;;;1.03;;
2390;SDS011;22957;50.824;4.360;2024-03-23T14:58:29;10.03;;;1.27;;
2390;SDS011;22957;50.824;4.360;2024-03-23T15:01:05;5.10;;;0.90;;
2390;SDS011;22957;50.824;4.360;2024-03-23T15:03:38;2.40;;;0.83;;
2390;SDS011;22957;50.824;4.360;2024-03-23T15:06:04;2.60;;;1.03;;
2390;SDS011;22957;50.824;4.360;2024-03-23T15:08:30;4.97;;;1.17;;
2390;SDS011;22957;50.824;4.360;2024-03-23T15:11:02;7.03;;;1.53;;
2390;SDS011;22957;50.824;4.360;2024-03-23T15:13:31;3.00;;;1.10;;
2390;SDS011;22957;50.824;4.360;2024-03-23T15:16:00;5.13;;;1.00;;
2390;SDS011;22957;50.824;4.360;2024-03-23T15:18:28;4.30;;;1.30;;
2390;SDS011;22957;50.824;4.360;2024-03-23T15:20:55;6.47;;;1.43;;
2390;SDS011;22957;50.824;4.360;2024-03-23T15:23:21;5.73;;;1.00;;
2390;SDS011;22957;50.824;4.360;2024-03-23T15:25:59;4.47;;;1.00;;
2390;SDS011;22957;50.824;4.360;2024-03-23T15:28:27;5.70;;;1.30;;
2390;SDS011;22957;50.824;4.360;2024-03-23T15:31:28;2.80;;;1.10;;
2390;SDS011;22957;50.824;4.360;2024-03-23T15:33:56;5.17;;;1.07;;
2390;SDS011;22957;50.824;4.360;2024-03-23T15:36:22;4.27;;;1.03;;
2390;SDS011;22957;50.824;4.360;2024-03-23T15:38:47;8.27;;;2.27;;
2390;SDS011;22957;50.824;4.360;2024-03-23T15:41:14;7.93;;;1.43;;
2390;SDS011;22957;50.824;4.360;2024-03-23T15:43:39;7.23;;;1.30;;
2390;SDS011;22957;50.824;4.360;2024-03-23T15:46:06;6.73;;;1.27;;
2390;SDS011;22957;50.824;4.360;2024-03-23T15:48:33;3.57;;;1.10;;
2390;SDS011;22957;50.824;4.360;2024-03-23T15:51:00;5.20;;;1.30;;
2390;SDS011;22957;50.824;4.360;2024-03-23T15:53:29;7.00;;;1.23;;
2390;SDS011;22957;50.824;4.360;2024-03-23T15:56:02;5.50;;;1.20;;
2390;SDS011;22957;50.824;4.360;2024-03-23T15:58:29;4.80;;;0.97;;
2390;SDS011;22957;50.824;4.360;2024-03-23T16:01:01;6.60;;;1.40;;
2390;SDS011;22957;50.824;4.360;2024-03-23T16:03:31;3.87;;;1.13;;
2390;SDS011;22957;50.824;4.360;2024-03-23T16:06:03;4.03;;;1.63;;